Time;durP1;ratioP1;P1;durP2;ratioP2;P2;SDS_P1;SDS_P2;PMS_P1;PMS_P2;Temp;Humidity;BMP_temperature;BMP_pressure;BME280_temperature;BME280_humidity;BME280_pressure;Samples;Min_cycle;Max_cycle;Signal;HPM_P1;HPM_P2
2023/02/28 05:49:12;;;;;;;14.90;7.10;;;;;;;-1.94;100.00;101324.21;112911;1249;22383;-44
2023/02/28 05:51:39;;;;;;;14.30;6.50;;;;;;;-1.94;100.00;101324.73;112954;1249;22723;-44
2023/02/28 05:54:09;;;;;;;12.40;6.90;;;;;;;-1.94;100.00;101322.35;112295;1249;22505;-45
2023/02/28 05:56:38;;;;;;;14.70;7.20;;;;;;;-1.92;100.00;101320.58;112971;1235;22395;-53
2023/02/28 05:59:06;;;;;;;11.20;5.70;;;;;;;-1.90;100.00;101322.61;112897;1249;22186;-45
2023/02/28 06:01:36;;;;;;;10.10;5.90;;;;;;;-1.91;100.00;101326.15;112729;1249;273052;-52
2023/02/28 06:04:04;;;;;;;13.00;6.70;;;;;;;-1.93;100.00;101327.00;112961;1249;22249;-47
2023/02/28 06:06:33;;;;;;;8.60;5.30;;;;;;;-1.94;100.00;101325.77;112916;1248;22380;-45
2023/02/28 06:09:06;;;;;;;9.50;6.10;;;;;;;-1.93;100.00;101320.89;112813;1249;22532;-52
2023/02/28 06:11:35;;;;;;;13.60;6.70;;;;;;;-1.88;100.00;101324.14;112791;1249;23100;-45
2023/02/28 06:14:03;;;;;;;13.80;7.60;;;;;;;-1.81;100.00;101329.83;112826;1249;22358;-45
2023/02/28 06:16:31;;;;;;;15.90;7.40;;;;;;;-1.76;100.00;101328.50;112957;1249;22591;-53
2023/02/28 06:18:58;;;;;;;13.30;6.90;;;;;;;-1.69;100.00;101332.20;112912;1249;22969;-53
2023/02/28 06:21:27;;;;;;;19.30;7.20;;;;;;;-1.63;100.00;101332.42;112853;1244;22324;-53
2023/02/28 06:23:55;;;;;;;14.00;7.80;;;;;;;-1.54;100.00;101329.54;112850;1249;22953;-45
2023/02/28 06:26:22;;;;;;;21.50;9.00;;;;;;;-1.46;100.00;101326.52;112541;1249;23764;-53
2023/02/28 06:28:50;;;;;;;17.80;9.30;;;;;;;-1.42;100.00;101330.05;112789;1249;22433;-53
2023/02/28 06:31:17;;;;;;;20.00;9.70;;;;;;;-1.35;100.00;101333.41;112581;1249;22429;-53
2023/02/28 06:33:44;;;;;;;23.20;10.20;;;;;;;-1.25;100.00;101337.41;112494;1249;22420;-53
2023/02/28 06:36:13;;;;;;;27.60;10.80;;;;;;;-1.18;100.00;101340.14;112694;1249;23555;-45
2023/02/28 06:38:51;;;;;;;23.00;11.50;;;;;;;-1.13;100.00;101347.48;112208;1249;22506;-52
2023/02/28 06:41:30;;;;;;;21.80;9.10;;;;;;;-1.05;100.00;101351.02;112530;1249;22494;-52
2023/02/28 06:44:26;;;;;;;21.40;7.60;;;;;;;-1.01;100.00;101358.33;112548;1248;23632;-45
2023/02/28 06:46:54;;;;;;;18.80;7.50;;;;;;;-1.00;100.00;101358.86;112012;1249;22508;-48
2023/02/28 06:49:24;;;;;;;13.80;6.90;;;;;;;-1.00;99.14;101360.25;112661;1249;22283;-45
2023/02/28 06:51:51;;;;;;;17.10;7.20;;;;;;;-1.04;98.04;101354.17;111596;1248;22528;-45
2023/02/28 06:54:19;;;;;;;15.60;6.80;;;;;;;-1.07;97.57;101357.45;112468;1249;22645;-45
2023/02/28 06:56:47;;;;;;;13.50;6.30;;;;;;;-1.08;97.53;101358.59;112110;1249;22490;-51
2023/02/28 06:59:14;;;;;;;11.60;6.30;;;;;;;-1.09;96.30;101359.71;112796;1249;22247;-55
2023/02/28 07:01:40;;;;;;;9.60;4.80;;;;;;;-1.08;96.04;101359.92;112754;1249;22457;-46
2023/02/28 07:04:07;;;;;;;7.50;4.70;;;;;;;-1.08;95.25;101359.10;112695;1249;22384;-52
2023/02/28 07:06:38;;;;;;;7.30;4.20;;;;;;;-1.06;95.44;101364.16;111502;1249;23083;-51
2023/02/28 07:09:07;;;;;;;8.90;4.30;;;;;;;-1.03;95.57;101369.48;112225;1249;23449;-50
2023/02/28 07:11:36;;;;;;;7.40;4.00;;;;;;;-1.00;95.53;101374.12;112128;1248;25369;-46
2023/02/28 07:14:03;;;;;;;8.70;4.30;;;;;;;-0.96;95.11;101376.98;112330;1249;22403;-53
2023/02/28 07:16:30;;;;;;;6.40;4.40;;;;;;;-0.94;94.76;101378.84;112586;1249;22591;-45
2023/02/28 07:18:58;;;;;;;5.60;4.20;;;;;;;-0.91;94.79;101375.38;112049;1249;22785;-44
2023/02/28 07:21:31;;;;;;;7.90;4.60;;;;;;;-0.87;94.86;101369.45;111955;1242;22493;-52
2023/02/28 07:24:10;;;;;;;6.50;3.80;;;;;;;-0.84;94.70;101367.80;111902;1244;22991;-52
2023/02/28 07:26:37;;;;;;;7.60;4.20;;;;;;;-0.82;94.40;101371.32;112674;1249;22456;-53
2023/02/28 07:29:07;;;;;;;7.90;4.00;;;;;;;-0.84;93.14;101377.02;112658;1249;22776;-45
2023/02/28 07:31:36;;;;;;;7.00;4.20;;;;;;;-0.91;92.69;101375.39;112611;1248;22407;-44
2023/02/28 07:34:04;;;;;;;5.80;3.70;;;;;;;-0.96;92.99;101377.86;112594;1249;22915;-44
2023/02/28 07:36:30;;;;;;;5.90;3.80;;;;;;;-0.98;93.27;101386.78;112692;1249;23010;-44
2023/02/28 07:38:58;;;;;;;5.70;3.60;;;;;;;-0.98;93.09;101381.46;112557;1249;22496;-44
2023/02/28 07:41:33;;;;;;;4.40;3.60;;;;;;;-1.00;92.48;101373.42;112646;1249;22393;-45
2023/02/28 07:44:00;;;;;;;8.20;4.20;;;;;;;-1.02;92.83;101368.56;112731;1240;22505;-54
2023/02/28 07:46:29;;;;;;;6.70;4.30;;;;;;;-0.99;93.21;101367.00;112394;1249;22480;-46
2023/02/28 07:48:59;;;;;;;5.80;4.10;;;;;;;-0.93;93.21;101368.23;112445;1249;22456;-52
2023/02/28 07:51:33;;;;;;;12.30;6.60;;;;;;;-0.91;93.22;101372.36;112256;1249;22934;-53
2023/02/28 07:54:03;;;;;;;6.80;4.90;;;;;;;-0.88;92.78;101371.13;112411;1249;23833;-55
2023/02/28 07:56:32;;;;;;;5.90;4.10;;;;;;;-0.89;92.59;101367.98;112809;1249;22520;-44
2023/02/28 07:59:01;;;;;;;8.00;5.10;;;;;;;-0.89;92.71;101364.73;112626;1249;22490;-45
2023/02/28 08:01:39;;;;;;;10.80;6.40;;;;;;;-0.89;92.63;101361.65;112426;1249;22488;-52
2023/02/28 08:04:06;;;;;;;9.00;5.00;;;;;;;-0.85;92.39;101367.36;112158;1248;23462;-53
2023/02/28 08:06:34;;;;;;;7.30;5.20;;;;;;;-0.83;91.28;101366.14;112528;1249;23092;-45
2023/02/28 08:09:06;;;;;;;6.80;4.50;;;;;;;-0.78;91.10;101368.17;111967;1249;23743;-54
2023/02/28 08:11:37;;;;;;;6.50;4.00;;;;;;;-0.74;90.58;101364.11;112253;1248;22869;-53
2023/02/28 08:14:05;;;;;;;9.40;4.60;;;;;;;-0.71;90.96;101357.30;112103;1249;22434;-54
2023/02/28 08:16:32;;;;;;;10.90;5.70;;;;;;;-0.66;90.96;101356.05;112586;1249;22395;-53
2023/02/28 08:18:59;;;;;;;11.20;6.30;;;;;;;-0.64;89.61;101356.72;112663;1249;23115;-52
2023/02/28 08:21:26;;;;;;;7.00;4.70;;;;;;;-0.66;89.36;101359.32;112573;1249;22354;-45
2023/02/28 08:23:53;;;;;;;7.60;4.80;;;;;;;-0.66;89.21;101359.64;112683;1249;23156;-53
2023/02/28 08:26:20;;;;;;;7.50;5.10;;;;;;;-0.64;89.71;101359.77;112664;1249;22502;-54
2023/02/28 08:28:47;;;;;;;6.90;4.50;;;;;;;-0.59;90.06;101363.85;112298;1249;23343;-53
2023/02/28 08:31:16;;;;;;;6.10;4.60;;;;;;;-0.49;90.09;101368.23;112014;1244;23342;-51
2023/02/28 08:33:51;;;;;;;9.20;5.00;;;;;;;-0.39;89.48;101368.52;111978;1249;22458;-44
2023/02/28 08:36:19;;;;;;;8.30;5.40;;;;;;;-0.34;89.27;101364.50;111971;1233;22501;-55
2023/02/28 08:38:46;;;;;;;7.60;5.40;;;;;;;-0.27;89.04;101362.42;112470;1249;22506;-45
2023/02/28 08:41:14;;;;;;;9.40;6.00;;;;;;;-0.23;87.80;101362.75;112809;1249;22449;-54
2023/02/28 08:43:44;;;;;;;10.60;6.70;;;;;;;-0.24;87.02;101360.15;111381;1249;22578;-45
2023/02/28 08:46:12;;;;;;;10.40;6.60;;;;;;;-0.30;86.52;101360.86;112634;1249;23262;-45
2023/02/28 08:48:41;;;;;;;10.00;6.80;;;;;;;-0.32;87.11;101352.80;112520;1248;23035;-45
2023/02/28 08:51:12;;;;;;;10.20;6.30;;;;;;;-0.32;87.11;101362.41;112448;1249;23750;-55
2023/02/28 08:53:40;;;;;;;8.00;5.60;;;;;;;-0.34;86.62;101365.73;112635;1248;22414;-55
2023/02/28 08:56:13;;;;;;;7.60;5.50;;;;;;;-0.41;85.88;101369.27;112683;1249;22374;-46
2023/02/28 08:58:43;;;;;;;7.40;6.40;;;;;;;-0.48;86.12;101376.35;111940;1249;22486;-46
2023/02/28 09:01:28;;;;;;;9.40;6.40;;;;;;;-0.56;86.16;101378.66;112134;1240;22673;-46
2023/02/28 09:03:57;;;;;;;9.70;6.20;;;;;;;-0.59;86.36;101385.27;112700;1249;22481;-46
2023/02/28 09:06:26;;;;;;;8.20;6.30;;;;;;;-0.62;85.71;101382.55;112777;1249;22434;-46
2023/02/28 09:09:01;;;;;;;8.80;5.90;;;;;;;-0.65;86.17;101380.47;112420;1249;22448;-55
2023/02/28 09:11:31;;;;;;;9.40;6.30;;;;;;;-0.69;86.19;101383.63;112157;1249;22768;-45
2023/02/28 09:14:05;;;;;;;9.10;6.10;;;;;;;-0.72;86.43;101382.23;112496;1249;25581;-55
2023/02/28 09:16:37;;;;;;;10.80;7.80;;;;;;;-0.72;86.48;101386.36;112184;1249;22509;-50
2023/02/28 09:19:12;;;;;;;26.20;14.90;;;;;;;-0.72;86.49;101391.14;111324;1249;22969;-46
2023/02/28 09:21:41;;;;;;;10.90;8.00;;;;;;;-0.72;86.37;101390.60;112563;1248;22338;-44
2023/02/28 09:24:08;;;;;;;10.60;8.40;;;;;;;-0.70;87.23;101390.05;112852;1249;22456;-55
2023/02/28 09:26:35;;;;;;;9.90;6.90;;;;;;;-0.64;87.06;101392.02;112507;1249;22824;-55
2023/02/28 09:29:17;;;;;;;11.20;8.00;;;;;;;-0.65;86.42;101387.45;112212;1249;22949;-46
2023/02/28 09:31:45;;;;;;;9.30;7.30;;;;;;;-0.65;86.99;101383.52;112810;1248;22216;-55
2023/02/28 09:34:12;;;;;;;11.50;8.00;;;;;;;-0.59;87.11;101383.04;112218;1249;22493;-44
2023/02/28 09:36:45;;;;;;;9.80;7.60;;;;;;;-0.50;87.30;101383.23;112431;1248;22553;-46
2023/02/28 09:39:23;;;;;;;9.80;7.70;;;;;;;-0.41;87.36;101378.47;111718;1248;22465;-54
2023/02/28 09:41:53;;;;;;;11.10;8.40;;;;;;;-0.38;86.40;101376.29;112590;1249;22435;-47
2023/02/28 09:44:26;;;;;;;11.40;8.80;;;;;;;-0.37;86.10;101375.00;112594;1248;22551;-55
2023/02/28 09:46:59;;;;;;;12.20;8.40;;;;;;;-0.32;86.79;101372.73;112690;1249;22564;-46
2023/02/28 09:49:31;;;;;;;15.20;9.50;;;;;;;-0.26;86.94;101367.95;112713;1248;22248;-46
2023/02/28 09:52:08;;;;;;;11.90;8.20;;;;;;;-0.19;86.71;101364.04;112546;1249;22445;-49
2023/02/28 09:54:36;;;;;;;14.50;9.90;;;;;;;-0.19;85.03;101369.03;112725;1248;22370;-45
2023/02/28 09:57:09;;;;;;;12.80;8.80;;;;;;;-0.27;84.52;101372.13;112676;1249;22485;-45
2023/02/28 09:59:45;;;;;;;14.90;10.10;;;;;;;-0.36;84.64;101367.31;111848;1248;22528;-53
2023/02/28 10:02:32;;;;;;;15.20;9.60;;;;;;;-0.39;85.57;101363.91;112444;1249;23320;-55
2023/02/28 10:05:10;;;;;;;14.30;9.10;;;;;;;-0.38;85.48;101359.83;112646;1249;23776;-54
2023/02/28 10:07:42;;;;;;;14.40;9.60;;;;;;;-0.41;84.94;101362.55;112400;1248;22821;-55
2023/02/28 10:10:24;;;;;;;13.80;10.80;;;;;;;-0.47;84.50;101362.02;112699;1249;22207;-46
2023/02/28 10:12:56;;;;;;;15.70;9.60;;;;;;;-0.50;84.94;101366.81;112542;1249;22365;-45
2023/02/28 10:15:26;;;;;;;;;;;;;;;-0.48;84.38;101363.00;112532;1249;22417;-45
2023/02/28 10:18:04;;;;;;;17.20;10.40;;;;;;;-0.43;84.09;101357.13;112255;1249;23111;-56
2023/02/28 10:20:40;;;;;;;16.00;10.20;;;;;;;-0.34;83.95;101349.95;112438;1249;22407;-47
2023/02/28 10:23:10;;;;;;;15.30;10.60;;;;;;;-0.23;84.22;101338.81;112564;1248;22528;-55
2023/02/28 10:25:39;;;;;;;15.30;9.70;;;;;;;-0.13;84.09;101338.05;112543;1248;22311;-54
2023/02/28 10:28:10;;;;;;;15.00;10.80;;;;;;;-0.08;83.37;101334.89;111960;1249;22644;-55
2023/02/28 10:30:45;;;;;;;19.50;10.10;;;;;;;-0.03;83.67;101326.10;112201;1248;22267;-45
2023/02/28 10:33:23;;;;;;;15.20;11.10;;;;;;;-0.01;82.79;101335.98;112390;1249;22962;-46
2023/02/28 10:36:03;;;;;;;16.00;10.90;;;;;;;-0.00;83.57;101332.26;112007;1249;22466;-53
2023/02/28 10:38:43;;;;;;;15.70;11.00;;;;;;;0.06;83.46;101327.95;112605;1239;22462;-45
2023/02/28 10:41:37;;;;;;;19.00;12.10;;;;;;;0.11;83.13;101319.02;112502;1249;23350;-45
2023/02/28 10:48:27;;;;;;;16.40;11.30;;;;;;;0.26;82.82;101315.21;112794;1249;23368;-45
2023/02/28 10:51:19;;;;;;;19.30;12.80;;;;;;;0.29;81.97;101315.09;112729;1249;22422;-45
2023/02/28 10:53:48;;;;;;;17.10;11.10;;;;;;;0.31;82.53;101309.17;112744;1249;22376;-46
2023/02/28 10:56:34;;;;;;;19.10;11.20;;;;;;;0.36;83.09;101309.13;112437;1249;22891;-54
2023/02/28 10:59:08;;;;;;;15.60;10.90;;;;;;;0.38;82.33;101307.70;112522;1248;22274;-46
2023/02/28 11:01:52;;;;;;;18.30;12.50;;;;;;;0.44;81.62;101305.98;112558;1249;23458;-55
2023/02/28 11:04:39;;;;;;;17.30;11.10;;;;;;;0.57;81.93;101302.23;112442;1249;22944;-57
2023/02/28 11:07:16;;;;;;;17.00;10.80;;;;;;;0.64;81.41;101305.07;112822;1249;22247;-59
2023/02/28 11:09:55;;;;;;;19.20;12.40;;;;;;;0.62;80.93;101303.19;112503;1249;22435;-55
2023/02/28 11:12:25;;;;;;;16.70;11.70;;;;;;;0.59;81.91;101300.48;112492;1248;22568;-46
2023/02/28 11:14:57;;;;;;;15.20;10.20;;;;;;;0.60;81.88;101295.39;111565;1249;25454;-47
2023/02/28 11:17:26;;;;;;;15.60;11.10;;;;;;;0.59;81.56;101292.75;112424;1249;22486;-47
2023/02/28 11:20:01;;;;;;;14.20;9.90;;;;;;;0.56;81.13;101288.77;112269;1249;22512;-46
2023/02/28 11:22:35;;;;;;;17.90;11.30;;;;;;;0.46;80.73;101289.96;112775;1248;22960;-55
2023/02/28 11:25:13;;;;;;;16.10;10.50;;;;;;;0.43;81.94;101290.49;112044;1249;22462;-55
2023/02/28 11:27:46;;;;;;;15.70;11.50;;;;;;;0.45;82.38;101289.55;112115;1249;22409;-55
2023/02/28 11:30:24;;;;;;;15.10;10.60;;;;;;;0.46;82.29;101288.23;112283;1248;22451;-47
2023/02/28 11:32:51;;;;;;;15.10;11.30;;;;;;;0.51;82.54;101281.51;112737;1249;22275;-46
2023/02/28 11:35:27;;;;;;;19.20;12.30;;;;;;;0.59;83.34;101275.71;111871;1249;22673;-45
2023/02/28 11:37:57;;;;;;;14.60;11.10;;;;;;;0.66;83.33;101279.89;111902;1249;22807;-55
2023/02/28 11:40:31;;;;;;;13.00;9.60;;;;;;;0.71;82.39;101281.41;111011;1249;23370;-46
2023/02/28 11:43:28;;;;;;;14.90;10.50;;;;;;;0.72;81.32;101280.42;112261;1249;22503;-45
2023/02/28 11:46:25;;;;;;;16.10;11.10;;;;;;;0.68;81.11;101278.81;111985;1249;23254;-56
2023/02/28 11:48:56;;;;;;;16.30;10.60;;;;;;;0.62;81.69;101281.19;112555;1249;22398;-46
2023/02/28 11:51:27;;;;;;;15.60;10.80;;;;;;;0.58;81.96;101278.05;112507;1248;22597;-56
2023/02/28 11:54:01;;;;;;;15.10;10.70;;;;;;;0.60;81.51;101275.11;112559;1249;22467;-55
2023/02/28 11:56:39;;;;;;;15.50;11.10;;;;;;;0.63;82.65;101271.83;112458;1248;22879;-54
2023/02/28 11:59:34;;;;;;;13.40;11.40;;;;;;;0.62;82.95;101274.19;112766;1249;22409;-56
2023/02/28 12:02:17;;;;;;;12.80;9.40;;;;;;;0.70;81.49;101273.77;112731;1249;22364;-45
2023/02/28 12:05:04;;;;;;;14.30;10.10;;;;;;;0.85;81.26;101271.87;112764;1241;22708;-45
2023/02/28 12:07:33;;;;;;;16.30;11.30;;;;;;;0.88;80.97;101268.41;112637;1249;23468;-45
2023/02/28 12:10:15;;;;;;;15.60;11.20;;;;;;;0.80;81.74;101267.14;112623;1249;22426;-46
2023/02/28 12:12:49;;;;;;;17.50;11.10;;;;;;;0.72;81.01;101263.23;112853;1248;22355;-45
2023/02/28 12:15:44;;;;;;;17.10;12.20;;;;;;;0.63;82.04;101257.56;112619;1249;22360;-56
2023/02/28 12:18:56;;;;;;;16.70;12.70;;;;;;;0.56;82.18;101258.20;112770;1249;22406;-55
2023/02/28 12:21:43;;;;;;;15.30;11.30;;;;;;;0.43;82.39;101256.65;112704;1249;22439;-46
2023/02/28 12:24:31;;;;;;;18.20;12.70;;;;;;;0.33;83.40;101261.06;112839;1249;22789;-47
2023/02/28 12:27:00;;;;;;;17.70;12.80;;;;;;;0.30;84.06;101261.39;112802;1249;22368;-55
2023/02/28 12:30:04;;;;;;;22.00;14.90;;;;;;;0.24;83.41;101261.27;112643;1249;22908;-56
2023/02/28 12:32:41;;;;;;;;;;;;;;;0.20;83.55;101257.39;112828;1248;22471;-56
2023/02/28 12:35:08;;;;;;;17.80;12.10;;;;;;;0.15;84.29;101255.21;112713;1249;22375;-56
2023/02/28 12:37:50;;;;;;;19.80;11.50;;;;;;;0.14;84.98;101254.14;112901;1249;23626;-46
2023/02/28 12:40:20;;;;;;;26.70;15.70;;;;;;;0.18;85.31;101255.08;112804;1248;22351;-56
2023/02/28 12:42:50;;;;;;;18.70;12.10;;;;;;;0.22;85.40;101254.09;112608;1249;22824;-56
2023/02/28 12:45:48;;;;;;;19.90;12.90;;;;;;;0.23;85.94;101251.60;112690;1248;23239;-46
2023/02/28 12:48:29;;;;;;;18.70;12.80;;;;;;;0.24;85.24;101251.33;112268;1255;22213;-55
2023/02/28 12:50:56;;;;;;;14.20;11.30;;;;;;;0.20;85.18;101253.31;112258;1255;22782;-56
2023/02/28 12:53:30;;;;;;;16.30;11.90;;;;;;;0.17;85.31;101258.60;112273;1255;23244;-46
2023/02/28 12:55:57;;;;;;;18.20;12.20;;;;;;;0.12;84.99;101255.92;112310;1255;22423;-46
2023/02/28 12:58:30;;;;;;;19.00;12.90;;;;;;;0.08;84.56;101251.59;112303;1255;22872;-55
2023/02/28 13:01:10;;;;;;;18.80;11.60;;;;;;;0.06;85.22;101245.79;112209;1255;23010;-45
2023/02/28 13:03:57;;;;;;;19.10;12.40;;;;;;;0.07;86.32;101240.75;112159;1255;22664;-46
2023/02/28 13:06:32;;;;;;;20.60;14.60;;;;;;;0.02;84.74;101242.14;112198;1255;22480;-46
2023/02/28 13:09:08;;;;;;;17.80;12.80;;;;;;;-0.08;85.01;101241.45;112210;1255;23196;-46
2023/02/28 13:11:53;;;;;;;16.20;11.70;;;;;;;-0.14;86.23;101238.28;112216;1255;22436;-56
2023/02/28 13:14:38;;;;;;;19.50;12.50;;;;;;;-0.17;87.26;101234.02;112275;1255;22387;-46
2023/02/28 13:17:13;;;;;;;17.70;11.90;;;;;;;-0.19;87.27;101234.57;112319;1255;22313;-46
2023/02/28 13:19:44;;;;;;;16.00;11.20;;;;;;;-0.21;86.70;101231.56;112299;1255;22534;-45
2023/02/28 13:22:37;;;;;;;14.20;11.20;;;;;;;-0.22;86.81;101228.59;112275;1255;22402;-45
2023/02/28 13:25:33;;;;;;;15.70;12.00;;;;;;;-0.20;87.96;101229.91;112577;1249;22386;-55
2023/02/28 13:28:03;;;;;;;19.70;13.10;;;;;;;-0.15;88.69;101225.55;112525;1249;22454;-55
2023/02/28 13:30:56;;;;;;;15.80;11.70;;;;;;;-0.13;88.20;101222.60;112998;1249;22272;-46
2023/02/28 13:33:30;;;;;;;17.30;13.00;;;;;;;0.03;87.71;101224.54;112287;1248;22878;-46
2023/02/28 13:36:08;;;;;;;18.80;11.50;;;;;;;0.18;87.13;101226.23;112893;1249;22407;-45
2023/02/28 13:38:37;;;;;;;17.30;12.30;;;;;;;0.25;86.84;101219.59;113035;1249;23051;-46
2023/02/28 13:41:29;;;;;;;15.50;10.10;;;;;;;0.27;85.93;101218.33;113017;1249;22484;-55
2023/02/28 13:44:00;;;;;;;;;;;;;;;0.30;86.00;101215.05;112685;1249;22606;-47
